Time;durP1;ratioP1;P1;durP2;ratioP2;P2;SDS_P1;SDS_P2;PMS_P1;PMS_P2;Temp;Humidity;BMP_temperature;BMP_pressure;BME280_temperature;BME280_humidity;BME280_pressure;Samples;Min_cycle;Max_cycle;Signal;HPM_P1;HPM_P2
2022/05/26 00:01:08;;;;;;;23.25;8.18;;;;;;;;;;5112344;28;20538;-75
2022/05/26 00:03:36;;;;;;;25.05;9.38;;;;;;;;;;5073119;28;20059;-75
2022/05/26 00:06:05;;;;;;;24.63;9.60;;;;;;;;;;5110455;28;20167;-75
2022/05/26 00:08:32;;;;;;;22.33;8.52;;;;;;;;;;5111023;27;20081;-75
2022/05/26 00:11:01;;;;;;;33.75;10.48;;;;;;;;;;5079616;27;20393;-75
2022/05/26 00:13:31;;;;;;;26.42;9.75;;;;;;;;;;5111862;28;20615;-75
2022/05/26 00:15:57;;;;;;;27.60;9.73;;;;;;;;;;5095006;28;20530;-75
2022/05/26 00:18:24;;;;;;;26.75;10.75;;;;;;;;;;5111486;28;20043;-75
2022/05/26 00:20:51;;;;;;;21.50;9.88;;;;;;;;;;5102715;27;20036;-75
2022/05/26 00:23:17;;;;;;;21.75;9.07;;;;;;;;;;5120304;27;20502;-75
2022/05/26 00:25:44;;;;;;;25.55;9.38;;;;;;;;;;5094727;28;20537;-75
2022/05/26 00:28:10;;;;;;;26.55;10.02;;;;;;;;;;5112760;28;20097;-75
2022/05/26 00:30:37;;;;;;;23.63;9.57;;;;;;;;;;5110990;27;20081;-75
2022/05/26 00:33:05;;;;;;;17.15;8.35;;;;;;;;;;5115072;27;20039;-75
2022/05/26 00:35:34;;;;;;;26.13;9.23;;;;;;;;;;5081473;28;20442;-75
2022/05/26 00:38:08;;;;;;;28.38;9.57;;;;;;;;;;5081601;28;20051;-75
2022/05/26 00:40:35;;;;;;;25.35;9.60;;;;;;;;;;5067377;27;20044;-75
2022/05/26 00:43:02;;;;;;;28.60;9.88;;;;;;;;;;5088643;27;20450;-75
2022/05/26 00:45:40;;;;;;;25.10;8.65;;;;;;;;;;5071246;28;20046;-75
2022/05/26 00:48:15;;;;;;;27.40;8.15;;;;;;;;;;5111099;28;20043;-75
2022/05/26 00:50:46;;;;;;;26.42;9.95;;;;;;;;;;5104526;28;20039;-74
2022/05/26 00:53:18;;;;;;;25.23;9.35;;;;;;;;;;5099305;28;20039;-75
2022/05/26 00:56:05;;;;;;;30.30;9.18;;;;;;;;;;5111230;28;20047;-74
2022/05/26 00:58:35;;;;;;;24.38;8.75;;;;;;;;;;5093838;28;20105;-74
2022/05/26 01:01:04;;;;;;;22.23;8.40;;;;;;;;;;5104964;27;20501;-74
2022/05/26 01:03:31;;;;;;;22.02;8.85;;;;;;;;;;5079610;28;20409;-74
2022/05/26 01:06:01;;;;;;;19.40;8.13;;;;;;;;;;5113350;27;20047;-75
2022/05/26 01:08:38;;;;;;;27.88;7.45;;;;;;;;;;5109948;27;20088;-75
2022/05/26 01:11:06;;;;;;;27.92;8.13;;;;;;;;;;5102993;27;20083;-75
2022/05/26 01:13:33;;;;;;;24.67;8.80;;;;;;;;;;5089786;28;20051;-75
2022/05/26 01:16:09;;;;;;;23.38;7.97;;;;;;;;;;5100839;27;20059;-75
2022/05/26 01:18:46;;;;;;;31.90;9.27;;;;;;;;;;5115326;27;20569;-75
2022/05/26 01:21:17;;;;;;;27.60;9.25;;;;;;;;;;5107194;28;20074;-75
2022/05/26 01:24:13;;;;;;;25.73;10.20;;;;;;;;;;5111754;28;20285;-75
2022/05/26 01:26:42;;;;;;;23.45;8.55;;;;;;;;;;5106091;27;20046;-75
2022/05/26 01:29:32;;;;;;;24.80;8.70;;;;;;;;;;5105684;28;20500;-74
2022/05/26 01:32:04;;;;;;;19.92;7.38;;;;;;;;;;5081025;27;20407;-75
2022/05/26 01:34:56;;;;;;;24.98;8.20;;;;;;;;;;5065116;28;20416;-74
2022/05/26 01:37:41;;;;;;;20.10;8.75;;;;;;;;;;5098855;27;20047;-75
2022/05/26 01:40:22;;;;;;;21.33;9.07;;;;;;;;;;5114553;27;20512;-75
2022/05/26 01:42:52;;;;;;;21.60;8.40;;;;;;;;;;5094356;28;20489;-75
2022/05/26 01:45:44;;;;;;;18.40;7.25;;;;;;;;;;5090802;28;20043;-75
2022/05/26 01:48:29;;;;;;;25.25;8.18;;;;;;;;;;5097270;27;20431;-75
2022/05/26 01:51:09;;;;;;;23.95;7.60;;;;;;;;;;5082988;28;20043;-74
2022/05/26 01:53:44;;;;;;;28.90;8.90;;;;;;;;;;5091012;27;20035;-74
2022/05/26 01:56:19;;;;;;;17.58;8.50;;;;;;;;;;5077122;28;20032;-74
2022/05/26 01:58:45;;;;;;;;;;;;;;;;;;5061742;28;20053;-75
2022/05/26 02:01:14;;;;;;;15.82;6.90;;;;;;;;;;5050629;28;19920;-74
2022/05/26 02:03:42;;;;;;;20.63;7.25;;;;;;;;;;5064388;28;20046;-75
2022/05/26 02:06:24;;;;;;;23.10;6.18;;;;;;;;;;5026454;28;20052;-75
2022/05/26 02:09:16;;;;;;;18.90;5.78;;;;;;;;;;5050533;28;20081;-75
2022/05/26 02:11:47;;;;;;;13.93;4.85;;;;;;;;;;5049807;28;20053;-74
2022/05/26 02:14:18;;;;;;;10.90;4.15;;;;;;;;;;5033962;28;20083;-75
2022/05/26 02:16:50;;;;;;;8.57;4.18;;;;;;;;;;5033469;28;20098;-75
2022/05/26 02:19:20;;;;;;;11.85;4.97;;;;;;;;;;5049729;28;20533;-74
2022/05/26 02:22:05;;;;;;;12.23;4.95;;;;;;;;;;5045300;28;20259;-74
2022/05/26 02:24:34;;;;;;;20.17;4.45;;;;;;;;;;5040112;28;20530;-74
2022/05/26 02:27:01;;;;;;;15.38;5.03;;;;;;;;;;5032230;28;20194;-75
2022/05/26 02:32:14;;;;;;;11.30;3.85;;;;;;;;;;5055061;28;20055;-74
2022/05/26 02:34:42;;;;;;;9.57;3.90;;;;;;;;;;4999863;28;20070;-73
2022/05/26 02:37:09;;;;;;;9.68;3.35;;;;;;;;;;5106141;27;20047;-74
2022/05/26 02:39:35;;;;;;;8.15;3.92;;;;;;;;;;5085757;28;20038;-75
2022/05/26 02:42:07;;;;;;;10.60;4.03;;;;;;;;;;5074572;28;20046;-74
2022/05/26 02:44:37;;;;;;;13.13;4.70;;;;;;;;;;5092259;28;20040;-74
2022/05/26 02:47:13;;;;;;;8.00;3.28;;;;;;;;;;5109091;28;20082;-76
2022/05/26 02:49:58;;;;;;;11.18;3.35;;;;;;;;;;5090496;28;20171;-75
2022/05/26 02:52:25;;;;;;;8.68;3.40;;;;;;;;;;5105921;27;20665;-74
2022/05/26 02:55:10;;;;;;;18.23;3.90;;;;;;;;;;5082030;28;20043;-74
2022/05/26 02:57:54;;;;;;;9.20;3.60;;;;;;;;;;5071453;28;20574;-74
2022/05/26 03:00:21;;;;;;;;;;;;;;;;;;5082787;27;20444;-75
2022/05/26 03:02:59;;;;;;;6.68;3.17;;;;;;;;;;5112607;27;20395;-75
2022/05/26 03:05:28;;;;;;;5.70;3.17;;;;;;;;;;5095594;28;20051;-74
2022/05/26 03:07:57;;;;;;;10.65;2.67;;;;;;;;;;5113986;27;20374;-75
2022/05/26 03:10:26;;;;;;;11.27;2.33;;;;;;;;;;5079854;27;20039;-74
2022/05/26 03:12:54;;;;;;;10.68;2.65;;;;;;;;;;5104387;28;20039;-74
2022/05/26 03:15:21;;;;;;;6.80;2.40;;;;;;;;;;5108470;28;20110;-75
2022/05/26 03:17:48;;;;;;;6.55;2.42;;;;;;;;;;5109649;28;20039;-74
2022/05/26 03:20:14;;;;;;;7.75;2.67;;;;;;;;;;5104616;28;20713;-75
2022/05/26 03:22:41;;;;;;;6.68;2.83;;;;;;;;;;5089176;28;20039;-75
2022/05/26 03:25:08;;;;;;;7.40;2.63;;;;;;;;;;5093247;28;20032;-75
2022/05/26 03:27:34;;;;;;;8.32;2.90;;;;;;;;;;5074735;28;20572;-75
2022/05/26 03:30:01;;;;;;;9.73;2.85;;;;;;;;;;5109499;28;20139;-74
2022/05/26 03:32:28;;;;;;;7.60;2.33;;;;;;;;;;5096039;28;20537;-75
2022/05/26 03:43:10;;;;;;;7.07;2.20;;;;;;;;;;5093594;28;20181;-75
2022/05/26 03:45:37;;;;;;;6.30;2.65;;;;;;;;;;5092762;28;20624;-75
2022/05/26 03:48:04;;;;;;;7.15;2.22;;;;;;;;;;5069170;28;20051;-74
2022/05/26 03:50:31;;;;;;;8.38;2.75;;;;;;;;;;5102338;28;20085;-74
2022/05/26 03:52:57;;;;;;;6.35;2.22;;;;;;;;;;5110758;28;20047;-74
2022/05/26 03:55:24;;;;;;;6.07;2.78;;;;;;;;;;5115334;28;20185;-74
2022/05/26 03:57:51;;;;;;;4.88;2.63;;;;;;;;;;5071700;28;20043;-75
2022/05/26 04:00:19;;;;;;;5.45;2.00;;;;;;;;;;5102209;28;20512;-75
2022/05/26 04:02:45;;;;;;;11.18;2.70;;;;;;;;;;5098372;28;20206;-74
2022/05/26 04:05:15;;;;;;;8.00;3.55;;;;;;;;;;5094691;28;20103;-75
2022/05/26 04:07:42;;;;;;;7.60;2.67;;;;;;;;;;5117265;28;20078;-73
2022/05/26 04:10:10;;;;;;;6.30;2.85;;;;;;;;;;5099278;28;20040;-74
2022/05/26 04:12:37;;;;;;;4.18;2.30;;;;;;;;;;5108401;28;20039;-73
2022/05/26 04:15:06;;;;;;;5.28;2.30;;;;;;;;;;5090049;28;20416;-74
2022/05/26 04:17:36;;;;;;;6.68;2.88;;;;;;;;;;5105109;28;20127;-74
2022/05/26 04:20:06;;;;;;;7.15;2.28;;;;;;;;;;5103371;28;20413;-74
2022/05/26 04:22:33;;;;;;;5.20;2.92;;;;;;;;;;5113287;27;20052;-74
2022/05/26 04:25:00;;;;;;;7.78;2.10;;;;;;;;;;5110945;27;20039;-74
2022/05/26 04:27:28;;;;;;;5.03;2.20;;;;;;;;;;5120913;27;20042;-74
2022/05/26 04:29:55;;;;;;;5.15;2.53;;;;;;;;;;5101949;28;20046;-74
2022/05/26 04:32:22;;;;;;;16.90;3.08;;;;;;;;;;5114618;27;20389;-74
2022/05/26 04:34:50;;;;;;;8.88;2.45;;;;;;;;;;5090998;28;20127;-74
2022/05/26 04:37:17;;;;;;;7.35;2.20;;;;;;;;;;5111974;28;20054;-75
2022/05/26 04:39:47;;;;;;;5.75;2.70;;;;;;;;;;5078996;28;20036;-74
2022/05/26 04:42:13;;;;;;;7.30;2.00;;;;;;;;;;5115937;27;20046;-74
2022/05/26 04:44:42;;;;;;;5.90;2.35;;;;;;;;;;5103775;27;20050;-74
2022/05/26 04:47:08;;;;;;;5.47;2.80;;;;;;;;;;5096697;27;20067;-74
2022/05/26 04:49:38;;;;;;;7.07;2.13;;;;;;;;;;5101953;28;20490;-74
2022/05/26 04:52:05;;;;;;;6.38;2.15;;;;;;;;;;5091032;28;20047;-74
2022/05/26 04:54:32;;;;;;;6.40;2.10;;;;;;;;;;5102062;27;20361;-74
2022/05/26 04:57:00;;;;;;;7.57;2.15;;;;;;;;;;5083854;28;20044;-74
2022/05/26 04:59:27;;;;;;;4.38;2.75;;;;;;;;;;5067033;28;20035;-74
2022/05/26 05:01:54;;;;;;;6.60;2.90;;;;;;;;;;5100288;27;20036;-74
2022/05/26 05:04:23;;;;;;;8.30;2.70;;;;;;;;;;5087780;27;20060;-74
2022/05/26 05:06:50;;;;;;;11.95;2.58;;;;;;;;;;5104278;27;20429;-74
2022/05/26 05:09:16;;;;;;;13.82;2.63;;;;;;;;;;5103045;27;20036;-74
2022/05/26 05:11:44;;;;;;;8.73;2.65;;;;;;;;;;5104097;27;20122;-74
2022/05/26 05:14:12;;;;;;;6.07;2.20;;;;;;;;;;5085580;27;20065;-74
2022/05/26 05:16:42;;;;;;;7.50;2.03;;;;;;;;;;5103847;27;20043;-74
2022/05/26 05:19:14;;;;;;;8.35;2.42;;;;;;;;;;5112519;27;20039;-74
2022/05/26 05:21:50;;;;;;;11.73;2.80;;;;;;;;;;5101220;27;20039;-74
2022/05/26 05:24:25;;;;;;;6.72;2.15;;;;;;;;;;5102710;27;20043;-75
2022/05/26 05:26:56;;;;;;;4.88;1.80;;;;;;;;;;5102010;28;20496;-74
2022/05/26 05:29:26;;;;;;;7.03;2.80;;;;;;;;;;5098310;28;20102;-74
2022/05/26 05:31:57;;;;;;;5.95;2.45;;;;;;;;;;5100831;27;20169;-74
2022/05/26 05:34:27;;;;;;;4.07;1.75;;;;;;;;;;5103523;27;20043;-74
2022/05/26 05:36:54;;;;;;;6.93;2.08;;;;;;;;;;5100126;28;20032;-74
2022/05/26 05:39:24;;;;;;;8.68;2.80;;;;;;;;;;5105686;27;20531;-74
2022/05/26 05:41:51;;;;;;;7.70;3.22;;;;;;;;;;5089108;28;20481;-74
2022/05/26 05:44:17;;;;;;;5.07;1.80;;;;;;;;;;5103486;27;20035;-74
2022/05/26 05:46:59;;;;;;;5.03;2.30;;;;;;;;;;5055926;28;20044;-74
2022/05/26 05:49:27;;;;;;;12.25;2.78;;;;;;;;;;5082353;27;20074;-74
2022/05/26 05:51:55;;;;;;;4.85;1.98;;;;;;;;;;5099008;28;20035;-73
2022/05/26 05:54:21;;;;;;;6.05;2.22;;;;;;;;;;5097382;27;20028;-74
2022/05/26 05:56:48;;;;;;;8.15;2.20;;;;;;;;;;5083929;28;20524;-74
2022/05/26 05:59:14;;;;;;;4.90;2.13;;;;;;;;;;5099731;27;20553;-75
2022/05/26 06:01:41;;;;;;;10.80;2.13;;;;;;;;;;5105080;28;20045;-74
2022/05/26 06:04:08;;;;;;;5.15;2.40;;;;;;;;;;5108142;27;20052;-75
2022/05/26 06:06:38;;;;;;;7.30;1.90;;;;;;;;;;5102637;28;20043;-74
2022/05/26 06:09:16;;;;;;;12.07;2.22;;;;;;;;;;5064539;27;20061;-73
2022/05/26 06:11:46;;;;;;;5.47;2.25;;;;;;;;;;5100582;28;20500;-75
2022/05/26 06:14:12;;;;;;;5.35;1.88;;;;;;;;;;5105983;27;20039;-75
2022/05/26 06:16:42;;;;;;;8.13;3.03;;;;;;;;;;5084315;27;20094;-75
2022/05/26 06:19:08;;;;;;;5.97;1.98;;;;;;;;;;5099945;27;20028;-74
2022/05/26 06:21:37;;;;;;;7.22;1.92;;;;;;;;;;5068091;28;20482;-75
2022/05/26 06:24:04;;;;;;;11.70;2.65;;;;;;;;;;5097207;28;20118;-75
2022/05/26 06:26:31;;;;;;;4.10;1.70;;;;;;;;;;5103979;28;20055;-75
2022/05/26 06:37:13;;;;;;;5.07;1.67;;;;;;;;;;5098315;27;20109;-75
2022/05/26 06:37:16;;;;;;;6.45;1.73;;;;;;;;;;5104284;27;20404;-75
2022/05/26 06:39:44;;;;;;;6.53;2.10;;;;;;;;;;5084544;28;20650;-74
2022/05/26 06:42:10;;;;;;;13.85;2.22;;;;;;;;;;5107811;27;20778;-75
2022/05/26 06:44:39;;;;;;;8.00;1.88;;;;;;;;;;5095991;28;20043;-75
2022/05/26 06:47:07;;;;;;;5.88;1.95;;;;;;;;;;5111248;27;20043;-74
2022/05/26 06:49:34;;;;;;;9.82;3.90;;;;;;;;;;5103622;28;20043;-75
2022/05/26 06:52:04;;;;;;;5.50;2.17;;;;;;;;;;5111591;27;20035;-75
2022/05/26 06:54:36;;;;;;;7.45;2.80;;;;;;;;;;5072919;28;20122;-74
2022/05/26 06:57:03;;;;;;;5.90;1.90;;;;;;;;;;5098125;28;20039;-74
2022/05/26 06:59:29;;;;;;;8.30;1.77;;;;;;;;;;5104987;27;20028;-75
2022/05/26 07:01:56;;;;;;;4.82;1.98;;;;;;;;;;5103001;27;20039;-74
2022/05/26 07:04:24;;;;;;;6.55;1.80;;;;;;;;;;5105014;27;20488;-75
2022/05/26 07:06:51;;;;;;;6.80;2.00;;;;;;;;;;5085188;28;20564;-75
2022/05/26 07:09:17;;;;;;;3.30;1.77;;;;;;;;;;5100641;28;20058;-75
2022/05/26 07:11:44;;;;;;;6.07;2.05;;;;;;;;;;5100837;28;21050;-75
2022/05/26 07:14:11;;;;;;;5.82;2.10;;;;;;;;;;5085555;28;20043;-76
2022/05/26 07:16:41;;;;;;;5.82;2.35;;;;;;;;;;5103927;28;20050;-75
2022/05/26 07:19:07;;;;;;;8.13;1.63;;;;;;;;;;5104393;28;20431;-75
2022/05/26 07:21:34;;;;;;;8.30;1.95;;;;;;;;;;5068646;28;20118;-74
2022/05/26 07:24:00;;;;;;;6.75;2.13;;;;;;;;;;5106763;28;20031;-74
2022/05/26 07:26:28;;;;;;;5.30;1.73;;;;;;;;;;5069746;28;20431;-75
2022/05/26 07:28:55;;;;;;;6.65;1.60;;;;;;;;;;5101550;28;20051;-75
2022/05/26 07:31:24;;;;;;;3.70;2.00;;;;;;;;;;5077878;28;20397;-75
2022/05/26 07:33:54;;;;;;;8.23;1.90;;;;;;;;;;5087499;28;20135;-75
2022/05/26 07:42:11;;;;;;;5.72;2.00;;;;;;;;;;5046016;28;20413;-75
2022/05/26 07:44:40;;;;;;;5.88;1.98;;;;;;;;;;5084127;28;20044;-75
2022/05/26 07:47:08;;;;;;;7.57;1.80;;;;;;;;;;5109486;28;20125;-75
2022/05/26 07:49:42;;;;;;;7.78;2.78;;;;;;;;;;5085783;28;20042;-75
2022/05/26 07:52:12;;;;;;;10.68;2.03;;;;;;;;;;5069282;28;20043;-74
2022/05/26 07:54:42;;;;;;;3.45;1.67;;;;;;;;;;5089823;28;20492;-74
2022/05/26 07:57:13;;;;;;;4.03;1.58;;;;;;;;;;5071256;27;20054;-73
2022/05/26 07:59:42;;;;;;;5.63;2.20;;;;;;;;;;5069369;28;20044;-75
2022/05/26 08:02:12;;;;;;;5.13;1.73;;;;;;;;;;5099274;28;20069;-74
2022/05/26 08:04:38;;;;;;;4.80;1.42;;;;;;;;;;5086239;28;20135;-74
2022/05/26 08:07:06;;;;;;;8.25;2.00;;;;;;;;;;5089354;27;20062;-75
2022/05/26 08:09:32;;;;;;;8.82;1.38;;;;;;;;;;5092229;27;20055;-75
2022/05/26 08:11:59;;;;;;;2.70;1.70;;;;;;;;;;5105361;28;20043;-75
2022/05/26 08:14:25;;;;;;;4.07;1.50;;;;;;;;;;5100815;27;20067;-74
2022/05/26 08:16:51;;;;;;;3.13;1.40;;;;;;;;;;5107273;27;20586;-75
2022/05/26 08:19:21;;;;;;;4.25;1.52;;;;;;;;;;5079906;28;20071;-74
2022/05/26 08:21:48;;;;;;;12.20;1.98;;;;;;;;;;5099054;28;20031;-75
2022/05/26 08:24:17;;;;;;;5.47;1.27;;;;;;;;;;5083627;28;20035;-75
2022/05/26 08:26:44;;;;;;;5.85;2.35;;;;;;;;;;5072831;28;20047;-74
2022/05/26 08:29:10;;;;;;;6.47;1.25;;;;;;;;;;5089773;28;20082;-74
2022/05/26 08:31:36;;;;;;;5.00;1.90;;;;;;;;;;5110362;27;20043;-75
2022/05/26 08:34:03;;;;;;;5.05;1.42;;;;;;;;;;5107076;27;20459;-75
2022/05/26 08:36:30;;;;;;;3.80;1.60;;;;;;;;;;5074563;27;20112;-75
2022/05/26 08:38:56;;;;;;;3.05;1.13;;;;;;;;;;5070102;28;20458;-75
2022/05/26 08:41:24;;;;;;;4.50;1.50;;;;;;;;;;5072749;28;20122;-75
2022/05/26 08:44:00;;;;;;;5.13;1.90;;;;;;;;;;5101274;27;20094;-75
2022/05/26 08:46:35;;;;;;;4.22;1.40;;;;;;;;;;5084361;28;20568;-75
2022/05/26 08:49:02;;;;;;;5.68;1.67;;;;;;;;;;5075263;28;20047;-75
2022/05/26 08:51:38;;;;;;;5.28;1.52;;;;;;;;;;5090704;27;20087;-75
2022/05/26 08:54:06;;;;;;;3.90;1.42;;;;;;;;;;5086691;28;20059;-74
2022/05/26 08:56:35;;;;;;;5.22;1.33;;;;;;;;;;5108276;27;20126;-75
2022/05/26 08:59:04;;;;;;;5.30;1.40;;;;;;;;;;5097458;27;20410;-76
2022/05/26 09:01:32;;;;;;;4.18;1.60;;;;;;;;;;5104141;28;20490;-74
2022/05/26 09:03:59;;;;;;;1.70;1.00;;;;;;;;;;5068369;27;20082;-75
2022/05/26 09:06:26;;;;;;;2.63;1.25;;;;;;;;;;5062551;28;20043;-75
2022/05/26 09:14:26;;;;;;;6.53;1.60;;;;;;;;;;5107570;27;20044;-74
2022/05/26 09:16:58;;;;;;;3.80;1.23;;;;;;;;;;5113569;27;20513;-75
2022/05/26 09:19:29;;;;;;;6.25;1.42;;;;;;;;;;5095612;27;20051;-77
2022/05/26 09:21:56;;;;;;;3.65;1.65;;;;;;;;;;5106621;28;20047;-75
2022/05/26 09:24:26;;;;;;;3.67;1.27;;;;;;;;;;5086135;28;20743;-74
2022/05/26 09:27:03;;;;;;;6.07;1.80;;;;;;;;;;5104060;28;20039;-75
2022/05/26 09:29:44;;;;;;;3.75;1.10;;;;;;;;;;5105757;28;20044;-75
2022/05/26 09:32:15;;;;;;;6.68;2.08;;;;;;;;;;5083748;28;20044;-75
2022/05/26 09:34:42;;;;;;;4.70;1.35;;;;;;;;;;5111904;27;20378;-75
2022/05/26 09:37:08;;;;;;;5.80;2.65;;;;;;;;;;5108252;28;20540;-75
2022/05/26 09:39:41;;;;;;;4.45;1.48;;;;;;;;;;5105954;27;20070;-75
2022/05/26 09:42:17;;;;;;;6.13;1.30;;;;;;;;;;5101503;27;20358;-75
2022/05/26 09:44:49;;;;;;;4.47;1.30;;;;;;;;;;5104962;27;20059;-74
2022/05/26 09:47:24;;;;;;;6.45;1.45;;;;;;;;;;5108670;27;20047;-75
2022/05/26 09:49:53;;;;;;;6.90;1.58;;;;;;;;;;5085791;28;20051;-75
2022/05/26 09:52:23;;;;;;;5.75;2.33;;;;;;;;;;5104095;27;20302;-77
2022/05/26 09:55:05;;;;;;;7.72;2.30;;;;;;;;;;5111191;27;20044;-75
2022/05/26 09:57:32;;;;;;;6.70;1.80;;;;;;;;;;5101213;27;20048;-75
2022/05/26 09:59:59;;;;;;;3.90;1.73;;;;;;;;;;5049930;28;20059;-75
2022/05/26 10:02:46;;;;;;;7.28;1.73;;;;;;;;;;5101588;28;20093;-76
2022/05/26 10:05:16;;;;;;;6.63;2.38;;;;;;;;;;5075769;28;20055;-76
2022/05/26 10:07:45;;;;;;;;;;;;;;;;;;5089164;28;20039;-75
2022/05/26 10:10:16;;;;;;;5.78;2.05;;;;;;;;;;5101853;27;19925;-75
2022/05/26 10:12:58;;;;;;;4.32;2.20;;;;;;;;;;5089580;27;20079;-75
2022/05/26 10:15:39;;;;;;;5.85;2.10;;;;;;;;;;5101833;28;20142;-75
2022/05/26 10:18:24;;;;;;;11.90;2.30;;;;;;;;;;5089619;28;20027;-75
2022/05/26 10:20:59;;;;;;;12.27;3.47;;;;;;;;;;5096458;28;20040;-75
2022/05/26 10:23:41;;;;;;;5.57;2.78;;;;;;;;;;5066668;28;20263;-74
2022/05/26 10:26:13;;;;;;;6.03;2.42;;;;;;;;;;5065905;28;20050;-74
2022/05/26 10:28:52;;;;;;;4.65;2.20;;;;;;;;;;5081539;28;20040;-75
2022/05/26 10:31:27;;;;;;;6.45;2.90;;;;;;;;;;5085444;28;20050;-75
2022/05/26 10:33:53;;;;;;;9.10;3.28;;;;;;;;;;5088661;28;20120;-75
2022/05/26 10:36:23;;;;;;;5.00;2.67;;;;;;;;;;5092569;27;20066;-74
2022/05/26 10:38:59;;;;;;;5.03;2.42;;;;;;;;;;5095500;27;20374;-74
2022/05/26 10:41:43;;;;;;;6.88;2.45;;;;;;;;;;5100288;28;20061;-74
2022/05/26 10:44:12;;;;;;;7.43;2.80;;;;;;;;;;5078098;28;20035;-75
2022/05/26 10:46:41;;;;;;;6.35;2.00;;;;;;;;;;5098574;27;20053;-75
2022/05/26 10:49:26;;;;;;;5.05;2.20;;;;;;;;;;5086976;28;20085;-75
2022/05/26 10:51:57;;;;;;;5.75;2.40;;;;;;;;;;5075391;28;20032;-75
2022/05/26 10:54:31;;;;;;;3.25;1.92;;;;;;;;;;5087410;28;20066;-75
2022/05/26 10:57:11;;;;;;;6.07;2.13;;;;;;;;;;5069482;28;20039;-75
2022/05/26 10:59:46;;;;;;;5.50;2.10;;;;;;;;;;5095107;27;20230;-75
2022/05/26 11:02:16;;;;;;;5.55;2.45;;;;;;;;;;5070901;28;20043;-75
2022/05/26 11:04:43;;;;;;;12.82;3.03;;;;;;;;;;5105195;28;20079;-75
2022/05/26 11:07:28;;;;;;;4.47;1.90;;;;;;;;;;5064615;28;20044;-75
2022/05/26 11:09:57;;;;;;;7.97;2.03;;;;;;;;;;5080507;28;20670;-76
2022/05/26 11:12:35;;;;;;;6.03;1.90;;;;;;;;;;5078334;28;20078;-76
2022/05/26 11:17:58;;;;;;;5.20;2.60;;;;;;;;;;5113563;28;20035;-75
2022/05/26 11:20:30;;;;;;;2.88;1.90;;;;;;;;;;5090041;28;20039;-75
2022/05/26 11:23:04;;;;;;;7.68;2.47;;;;;;;;;;5077528;28;20036;-75
2022/05/26 11:25:34;;;;;;;5.88;2.42;;;;;;;;;;5076544;28;20204;-75
2022/05/26 11:28:07;;;;;;;7.50;2.53;;;;;;;;;;5106895;27;20514;-76
2022/05/26 11:37:05;;;;;;;5.53;1.70;;;;;;;;;;5103104;27;20062;-75
2022/05/26 11:39:34;;;;;;;5.05;1.90;;;;;;;;;;5114312;27;20039;-76
2022/05/26 11:42:02;;;;;;;3.55;1.77;;;;;;;;;;5101367;27;20031;-75
2022/05/26 11:44:48;;;;;;;6.25;2.00;;;;;;;;;;5111693;27;20039;-75
2022/05/26 11:47:14;;;;;;;8.82;2.30;;;;;;;;;;5120648;27;20035;-75
2022/05/26 11:49:45;;;;;;;4.22;2.40;;;;;;;;;;5107935;27;20043;-75
2022/05/26 11:52:23;;;;;;;5.75;2.03;;;;;;;;;;5111013;27;20033;-76
2022/05/26 11:54:57;;;;;;;7.22;2.28;;;;;;;;;;5115492;27;20042;-76
2022/05/26 11:57:41;;;;;;;5.07;2.22;;;;;;;;;;5109948;28;20082;-74
2022/05/26 12:00:16;;;;;;;8.43;2.30;;;;;;;;;;5111699;28;20044;-75
2022/05/26 12:02:44;;;;;;;3.88;2.00;;;;;;;;;;5109639;28;20278;-75
2022/05/26 12:05:37;;;;;;;2.92;1.77;;;;;;;;;;5105952;28;20047;-75
2022/05/26 12:08:06;;;;;;;5.03;2.13;;;;;;;;;;5100153;27;20052;-75
2022/05/26 12:10:41;;;;;;;5.60;2.38;;;;;;;;;;5093258;28;20082;-75
2022/05/26 12:13:27;;;;;;;3.72;2.25;;;;;;;;;;5110887;27;20039;-75
2022/05/26 12:16:22;;;;;;;10.18;2.88;;;;;;;;;;5107264;27;20508;-75
2022/05/26 12:18:50;;;;;;;6.30;2.42;;;;;;;;;;5105134;27;20039;-75
2022/05/26 12:21:34;;;;;;;8.10;2.38;;;;;;;;;;5093040;27;20122;-75
2022/05/26 12:24:19;;;;;;;5.95;2.55;;;;;;;;;;5093708;28;20044;-75
2022/05/26 12:26:51;;;;;;;7.25;2.78;;;;;;;;;;5119739;27;20122;-75
2022/05/26 12:29:36;;;;;;;8.00;2.85;;;;;;;;;;5113630;27;20035;-75
2022/05/26 12:32:10;;;;;;;6.65;2.20;;;;;;;;;;5113527;27;20082;-75
2022/05/26 12:34:51;;;;;;;4.45;2.03;;;;;;;;;;5115335;27;20043;-75
2022/05/26 12:37:29;;;;;;;5.85;2.67;;;;;;;;;;5093492;27;20426;-75
2022/05/26 12:40:15;;;;;;;7.10;2.75;;;;;;;;;;5070127;28;20511;-75
2022/05/26 12:42:48;;;;;;;6.05;2.53;;;;;;;;;;5074032;28;20038;-75
2022/05/26 12:45:24;;;;;;;6.80;3.13;;;;;;;;;;5070733;28;20288;-77
2022/05/26 12:48:05;;;;;;;5.22;1.92;;;;;;;;;;5089171;28;20028;-77
2022/05/26 12:50:41;;;;;;;9.93;2.72;;;;;;;;;;5060092;28;20228;-75
2022/05/26 12:53:17;;;;;;;7.22;2.75;;;;;;;;;;5078606;28;20401;-77
2022/05/26 12:55:50;;;;;;;8.20;2.85;;;;;;;;;;5092372;27;20040;-76
2022/05/26 12:58:22;;;;;;;8.10;2.72;;;;;;;;;;5102779;27;20031;-77
2022/05/26 13:00:50;;;;;;;4.73;2.33;;;;;;;;;;5103633;27;20054;-77
2022/05/26 13:03:35;;;;;;;4.72;2.45;;;;;;;;;;5104627;27;20036;-76
2022/05/26 13:06:08;;;;;;;8.38;2.03;;;;;;;;;;5076696;28;20527;-76
2022/05/26 13:08:49;;;;;;;8.73;3.13;;;;;;;;;;5091991;28;20466;-75
2022/05/26 13:11:21;;;;;;;5.70;2.35;;;;;;;;;;5107090;28;20043;-76
2022/05/26 13:13:51;;;;;;;7.53;2.95;;;;;;;;;;5114259;27;20043;-75
2022/05/26 13:16:32;;;;;;;7.80;3.55;;;;;;;;;;5091106;27;20130;-77
2022/05/26 13:19:19;;;;;;;9.23;3.25;;;;;;;;;;5083023;28;20040;-76
2022/05/26 13:21:46;;;;;;;6.07;3.00;;;;;;;;;;5113034;27;20100;-76
2022/05/26 13:24:14;;;;;;;5.28;2.85;;;;;;;;;;5109478;28;20130;-76
2022/05/26 13:26:42;;;;;;;6.50;3.35;;;;;;;;;;5070040;28;20040;-77
2022/05/26 13:29:09;;;;;;;10.20;3.38;;;;;;;;;;5071989;28;20475;-76
2022/05/26 13:34:27;;;;;;;5.75;2.65;;;;;;;;;;5112423;27;20039;-76
2022/05/26 13:36:54;;;;;;;8.13;3.63;;;;;;;;;;5088187;28;20084;-75
2022/05/26 13:39:24;;;;;;;6.82;3.45;;;;;;;;;;5078066;28;20061;-76
2022/05/26 13:41:52;;;;;;;12.25;3.88;;;;;;;;;;5100980;27;20517;-75
2022/05/26 13:44:34;;;;;;;5.93;2.90;;;;;;;;;;5093210;27;20043;-76
2022/05/26 13:47:04;;;;;;;11.38;4.75;;;;;;;;;;5063118;28;20036;-76
2022/05/26 13:49:33;;;;;;;5.10;2.65;;;;;;;;;;5092610;27;20032;-76
2022/05/26 13:52:22;;;;;;;9.50;3.00;;;;;;;;;;5071554;28;20040;-75
2022/05/26 13:54:58;;;;;;;6.75;3.20;;;;;;;;;;5075896;28;20036;-76
2022/05/26 13:57:29;;;;;;;27.05;4.90;;;;;;;;;;5099536;27;20035;-76
2022/05/26 13:59:58;;;;;;;6.85;3.13;;;;;;;;;;5103809;27;20064;-76
2022/05/26 14:02:25;;;;;;;12.73;4.32;;;;;;;;;;5093243;28;20039;-76
2022/05/26 14:04:59;;;;;;;8.82;3.92;;;;;;;;;;5093524;27;20052;-76
2022/05/26 14:07:31;;;;;;;14.38;4.57;;;;;;;;;;5109752;27;20035;-76
2022/05/26 14:10:20;;;;;;;12.77;3.75;;;;;;;;;;5114540;27;20043;-76
2022/05/26 14:12:59;;;;;;;11.75;4.00;;;;;;;;;;5105840;27;20820;-75
2022/05/26 14:15:42;;;;;;;20.63;4.30;;;;;;;;;;5076107;28;20044;-76
2022/05/26 14:18:23;;;;;;;18.20;4.15;;;;;;;;;;5105480;28;20046;-76
2022/05/26 14:21:11;;;;;;;19.63;4.78;;;;;;;;;;5111834;27;20031;-76
2022/05/26 14:23:38;;;;;;;9.77;4.00;;;;;;;;;;5090363;28;20035;-76
2022/05/26 14:26:06;;;;;;;8.20;4.00;;;;;;;;;;5099210;28;20074;-76
2022/05/26 14:28:35;;;;;;;7.75;3.55;;;;;;;;;;5087211;27;20464;-77
2022/05/26 14:31:03;;;;;;;8.35;3.30;;;;;;;;;;5089026;28;20427;-77
2022/05/26 14:33:31;;;;;;;7.45;3.45;;;;;;;;;;5111766;27;20528;-77
2022/05/26 14:35:58;;;;;;;6.38;2.38;;;;;;;;;;5112401;27;20087;-75
2022/05/26 14:38:27;;;;;;;15.07;3.22;;;;;;;;;;5079713;27;20043;-76
2022/05/26 14:40:54;;;;;;;10.88;2.88;;;;;;;;;;5097888;27;20046;-76
2022/05/26 14:43:22;;;;;;;11.85;3.83;;;;;;;;;;5101862;27;20040;-76
2022/05/26 14:45:53;;;;;;;6.65;3.25;;;;;;;;;;5091717;28;20052;-76
2022/05/26 14:48:20;;;;;;;6.05;2.63;;;;;;;;;;5109368;28;20042;-77
2022/05/26 14:50:49;;;;;;;10.82;3.30;;;;;;;;;;5090029;28;20047;-76
2022/05/26 14:53:16;;;;;;;6.15;2.78;;;;;;;;;;5107623;28;20464;-76
2022/05/26 14:55:47;;;;;;;11.25;3.55;;;;;;;;;;5090186;28;20106;-77
2022/05/26 14:58:14;;;;;;;10.07;3.50;;;;;;;;;;5104751;28;20036;-76
2022/05/26 15:00:43;;;;;;;11.10;3.70;;;;;;;;;;5100185;28;20535;-76
2022/05/26 15:03:10;;;;;;;6.55;2.90;;;;;;;;;;5109701;28;20566;-76
2022/05/26 15:05:52;;;;;;;14.95;4.25;;;;;;;;;;5111468;27;20068;-76
2022/05/26 15:08:20;;;;;;;6.75;2.70;;;;;;;;;;5106394;28;20035;-78
2022/05/26 15:10:50;;;;;;;13.27;3.67;;;;;;;;;;5109436;27;20070;-78
2022/05/26 15:13:16;;;;;;;8.90;3.72;;;;;;;;;;5091000;28;20059;-78
2022/05/26 15:15:43;;;;;;;13.68;4.85;;;;;;;;;;5110841;28;20382;-79
2022/05/26 15:18:10;;;;;;;8.85;3.50;;;;;;;;;;5105668;28;20433;-78
2022/05/26 15:20:40;;;;;;;6.88;3.22;;;;;;;;;;5104805;28;20046;-77
2022/05/26 15:23:09;;;;;;;7.90;3.17;;;;;;;;;;5102127;28;20043;-77
2022/05/26 15:26:07;;;;;;;7.72;3.38;;;;;;;;;;5092454;28;20048;-77
2022/05/26 15:28:28;;;;;;;6.05;2.60;;;;;;;;;;5080956;28;20315;-78
2022/05/26 15:30:55;;;;;;;7.63;3.50;;;;;;;;;;5062526;28;20051;-77
2022/05/26 15:33:22;;;;;;;5.45;3.05;;;;;;;;;;5092105;28;20077;-77
2022/05/26 15:35:51;;;;;;;7.57;2.83;;;;;;;;;;5115644;27;20418;-77
2022/05/26 15:38:18;;;;;;;6.53;3.28;;;;;;;;;;5112161;28;20470;-77
2022/05/26 15:40:44;;;;;;;8.50;4.22;;;;;;;;;;5107910;28;20512;-75
2022/05/26 15:43:11;;;;;;;8.57;3.90;;;;;;;;;;5114088;28;20044;-77
2022/05/26 15:45:44;;;;;;;7.35;3.95;;;;;;;;;;5107301;28;20090;-77